createdAt,value
2022-09-03T00:00:36.120Z,17.70
2022-09-03T00:03:23.922Z,17.70
2022-09-03T00:06:47.628Z,17.60
2022-09-03T00:09:23.016Z,17.60
2022-09-03T00:12:09.435Z,17.60
2022-09-03T00:14:44.353Z,17.50
2022-09-03T00:17:25.560Z,17.50
2022-09-03T00:20:08.392Z,17.50
2022-09-03T00:22:40.844Z,17.50
2022-09-03T00:25:14.612Z,17.50
2022-09-03T00:27:45.652Z,17.50
2022-09-03T00:30:17.260Z,17.50
2022-09-03T00:32:53.284Z,17.40
2022-09-03T00:35:28.728Z,17.50
2022-09-03T00:37:56.593Z,17.50
2022-09-03T00:40:32.120Z,17.50
2022-09-03T00:43:07.583Z,17.50
2022-09-03T00:45:39.820Z,17.50
2022-09-03T00:48:23.924Z,17.40
2022-09-03T00:51:00.313Z,17.30
2022-09-03T00:53:52.329Z,17.30
2022-09-03T00:57:04.988Z,17.20
2022-09-03T00:59:56.973Z,17.20
2022-09-03T01:02:35.811Z,17.10
2022-09-03T01:05:37.926Z,17.10
2022-09-03T01:08:19.837Z,17.00
2022-09-03T01:11:11.168Z,17.00
2022-09-03T01:13:46.964Z,17.00
2022-09-03T01:16:38.034Z,17.00
2022-09-03T01:19:32.506Z,16.90
2022-09-03T01:22:20.894Z,16.90
2022-09-03T01:24:59.279Z,16.80
2022-09-03T01:28:08.456Z,16.70
2022-09-03T01:30:41.192Z,16.70
2022-09-03T01:33:15.893Z,16.70
2022-09-03T01:36:00.317Z,16.60
2022-09-03T01:38:51.924Z,16.60
2022-09-03T01:41:59.119Z,16.60
2022-09-03T01:44:45.826Z,16.60
2022-09-03T01:47:28.033Z,16.50
2022-09-03T01:50:00.008Z,16.50
2022-09-03T01:52:45.802Z,16.50
2022-09-03T01:55:28.588Z,16.40
2022-09-03T01:58:00.093Z,16.40
2022-09-03T02:00:28.901Z,16.40
2022-09-03T02:02:55.673Z,16.40
2022-09-03T02:05:27.837Z,16.30
2022-09-03T02:08:03.864Z,16.30
2022-09-03T02:10:41.740Z,16.30
2022-09-03T02:13:28.646Z,16.30
2022-09-03T02:15:57.981Z,16.20
2022-09-03T02:18:33.778Z,16.20
2022-09-03T02:21:01.347Z,16.20
2022-09-03T02:23:28.931Z,16.20
2022-09-03T02:25:59.598Z,16.20
2022-09-03T02:28:28.040Z,16.20
2022-09-03T02:30:55.174Z,16.20
2022-09-03T02:33:22.170Z,16.20
2022-09-03T02:35:49.480Z,16.10
2022-09-03T02:38:25.667Z,16.10
2022-09-03T02:40:54.492Z,16.10
2022-09-03T02:43:31.091Z,16.20
2022-09-03T02:46:03.950Z,16.20
2022-09-03T02:48:31.133Z,16.10
2022-09-03T02:50:57.880Z,16.20
2022-09-03T02:53:24.851Z,16.10
2022-09-03T02:55:51.690Z,16.10
2022-09-03T02:58:18.488Z,16.10
2022-09-03T03:00:45.392Z,16.10
2022-09-03T03:03:12.111Z,16.10
2022-09-03T03:05:48.928Z,16.00
2022-09-03T03:08:17.097Z,16.10
2022-09-03T03:10:45.042Z,16.10
2022-09-03T03:13:12.365Z,16.00
2022-09-03T03:15:39.122Z,16.00
2022-09-03T03:18:07.511Z,16.00
2022-09-03T03:20:34.707Z,16.00
2022-09-03T03:23:05.539Z,16.00
2022-09-03T03:25:36.671Z,16.00
2022-09-03T03:28:05.139Z,16.00
2022-09-03T03:30:33.093Z,15.90
2022-09-03T03:33:00.974Z,15.90
2022-09-03T03:35:27.708Z,15.90
2022-09-03T03:37:54.537Z,15.80
2022-09-03T03:40:21.364Z,15.80
2022-09-03T03:42:48.221Z,15.80
2022-09-03T03:45:15.017Z,15.80
2022-09-03T03:47:41.988Z,15.70
2022-09-03T03:50:09.020Z,15.80
2022-09-03T03:52:35.835Z,15.80
2022-09-03T03:55:02.692Z,15.70
2022-09-03T03:57:32.189Z,15.70
2022-09-03T03:59:58.940Z,15.70
2022-09-03T04:02:25.854Z,15.70
2022-09-03T04:04:52.679Z,15.70
2022-09-03T04:07:19.475Z,15.70
2022-09-03T04:09:47.297Z,15.70
2022-09-03T04:12:14.046Z,15.60
2022-09-03T04:14:42.129Z,15.70
2022-09-03T04:17:08.944Z,15.60
2022-09-03T04:19:35.746Z,15.60
2022-09-03T04:22:03.155Z,15.60
2022-09-03T04:24:30.179Z,15.60
2022-09-03T04:26:57.146Z,15.50
2022-09-03T04:29:24.925Z,15.50
2022-09-03T04:32:10.144Z,15.50
2022-09-03T04:34:36.883Z,15.50
2022-09-03T04:37:03.686Z,15.50
2022-09-03T04:39:30.596Z,15.50
2022-09-03T04:41:59.939Z,15.50
2022-09-03T04:44:26.820Z,15.50
2022-09-03T04:46:53.595Z,15.60
2022-09-03T04:49:20.683Z,15.60
2022-09-03T04:51:47.447Z,15.60
2022-09-03T04:54:14.286Z,15.60
2022-09-03T04:56:41.337Z,15.60
2022-09-03T04:59:09.524Z,15.60
2022-09-03T05:01:39.387Z,15.60
2022-09-03T05:04:07.724Z,15.60
2022-09-03T05:06:35.516Z,15.60
2022-09-03T05:09:02.758Z,15.50
2022-09-03T05:11:30.155Z,15.60
2022-09-03T05:13:58.907Z,15.60
2022-09-03T05:16:28.890Z,15.50
2022-09-03T05:18:57.370Z,15.50
2022-09-03T05:21:24.666Z,15.50
2022-09-03T05:23:52.976Z,15.50
2022-09-03T05:26:22.223Z,15.50
2022-09-03T05:28:54.059Z,15.60
2022-09-03T05:31:22.386Z,15.60
2022-09-03T05:33:51.941Z,15.60
2022-09-03T05:36:22.314Z,15.60
2022-09-03T05:38:49.967Z,15.60
2022-09-03T05:41:19.029Z,15.70
2022-09-03T05:43:47.399Z,15.70
2022-09-03T05:46:18.303Z,15.70
2022-09-03T05:48:45.387Z,15.70
2022-09-03T05:51:17.616Z,15.70
2022-09-03T05:53:46.577Z,15.70
2022-09-03T05:56:24.328Z,15.80
2022-09-03T05:58:54.314Z,15.80
2022-09-03T06:01:28.625Z,15.80
2022-09-03T06:03:58.334Z,15.90
2022-09-03T06:06:27.147Z,15.90
2022-09-03T06:09:02.567Z,16.00
2022-09-03T06:11:30.737Z,16.00
2022-09-03T06:14:02.110Z,16.10
2022-09-03T06:16:31.872Z,16.10
2022-09-03T06:19:00.107Z,16.20
2022-09-03T06:21:27.379Z,16.20
2022-09-03T06:23:59.994Z,16.30
2022-09-03T06:26:30.925Z,16.40
2022-09-03T06:28:58.168Z,16.60
2022-09-03T06:31:26.227Z,16.70
2022-09-03T06:33:54.917Z,16.80
2022-09-03T06:36:23.453Z,16.90
2022-09-03T06:38:53.440Z,17.00
2022-09-03T06:41:24.940Z,17.10
2022-09-03T06:44:03.218Z,17.20
2022-09-03T06:46:32.574Z,17.30
2022-09-03T06:48:59.488Z,17.30
2022-09-03T06:51:29.136Z,17.30
2022-09-03T06:54:07.010Z,17.30
2022-09-03T06:56:39.953Z,17.30
2022-09-03T06:59:12.827Z,17.20
2022-09-03T07:01:44.136Z,17.20
2022-09-03T07:04:13.788Z,17.20
2022-09-03T07:06:42.609Z,17.30
2022-09-03T07:09:11.787Z,17.40
2022-09-03T07:11:46.659Z,17.50
2022-09-03T07:14:14.759Z,17.50
2022-09-03T07:16:44.373Z,17.50
2022-09-03T07:19:13.354Z,17.50
2022-09-03T07:21:48.354Z,17.60
2022-09-03T07:24:16.471Z,17.70
2022-09-03T07:26:49.469Z,17.90
2022-09-03T07:29:20.219Z,18.20
2022-09-03T07:31:48.587Z,18.50
2022-09-03T07:34:16.486Z,18.30
2022-09-03T07:36:47.751Z,18.30
2022-09-03T07:39:16.588Z,18.50
2022-09-03T07:41:45.783Z,18.70
2022-09-03T07:44:15.251Z,18.70
2022-09-03T07:46:43.499Z,18.90
2022-09-03T07:49:10.958Z,19.20
2022-09-03T07:51:38.869Z,19.50
2022-09-03T07:54:09.926Z,19.60
2022-09-03T07:56:37.395Z,19.70
2022-09-03T07:59:05.442Z,19.80
2022-09-03T08:01:33.345Z,20.20
2022-09-03T08:04:01.467Z,20.30
2022-09-03T08:06:30.369Z,20.50
2022-09-03T08:09:04.850Z,20.70
2022-09-03T08:11:35.157Z,20.80
2022-09-03T08:14:06.352Z,20.80
2022-09-03T08:16:36.405Z,20.60
2022-09-03T08:19:04.186Z,20.30
2022-09-03T08:21:31.534Z,20.20
2022-09-03T08:24:05.702Z,20.30
2022-09-03T08:26:35.203Z,20.60
2022-09-03T08:29:02.528Z,20.70
2022-09-03T08:31:30.040Z,21.00
2022-09-03T08:33:58.709Z,21.20
2022-09-03T08:36:29.942Z,21.20
2022-09-03T08:38:58.598Z,21.20
2022-09-03T08:41:34.250Z,21.20
2022-09-03T08:44:29.485Z,21.20
2022-09-03T08:46:59.649Z,21.10
2022-09-03T08:49:32.333Z,21.10
2022-09-03T08:52:03.329Z,21.00
2022-09-03T08:54:32.478Z,21.10
2022-09-03T08:57:02.857Z,21.10
2022-09-03T08:59:33.186Z,21.10
2022-09-03T09:02:38.070Z,21.00
2022-09-03T09:05:42.635Z,21.20
2022-09-03T09:08:23.436Z,21.50
2022-09-03T09:11:39.098Z,21.70
2022-09-03T09:14:25.885Z,21.70
2022-09-03T09:17:31.234Z,21.70
2022-09-03T09:20:22.739Z,21.60
2022-09-03T09:23:04.369Z,21.50
2022-09-03T09:25:32.514Z,21.60
2022-09-03T09:28:03.218Z,21.70
2022-09-03T09:30:31.963Z,21.80
2022-09-03T09:33:00.602Z,21.80
2022-09-03T09:35:27.460Z,21.90
2022-09-03T09:37:57.465Z,22.10
2022-09-03T09:40:26.152Z,22.30
2022-09-03T09:43:07.919Z,22.50
2022-09-03T09:45:35.056Z,22.80
2022-09-03T09:48:07.086Z,23.10
2022-09-03T09:50:33.944Z,23.20
2022-09-03T09:53:14.314Z,23.30
2022-09-03T09:55:55.331Z,23.20
2022-09-03T09:58:24.727Z,23.20
2022-09-03T10:00:56.689Z,23.20
2022-09-03T10:03:29.746Z,23.30
2022-09-03T10:06:41.476Z,23.40
2022-09-03T10:09:13.053Z,23.50
2022-09-03T10:12:05.129Z,23.60
2022-09-03T10:14:39.710Z,23.50
2022-09-03T10:17:36.919Z,23.50
2022-09-03T10:20:30.711Z,23.40
2022-09-03T10:23:02.836Z,23.30
2022-09-03T10:25:39.247Z,23.30
2022-09-03T10:28:09.473Z,23.30
2022-09-03T10:30:55.550Z,23.60
2022-09-03T10:33:57.158Z,23.50
2022-09-03T10:36:34.510Z,23.70
2022-09-03T10:39:25.776Z,23.60
2022-09-03T10:42:27.964Z,23.40
2022-09-03T10:45:19.701Z,23.30
2022-09-03T10:48:15.155Z,23.30
2022-09-03T10:50:53.579Z,23.40
2022-09-03T10:53:41.136Z,23.40
2022-09-03T10:56:17.332Z,23.50
2022-09-03T10:59:01.111Z,24.10
2022-09-03T11:01:49.357Z,24.30
2022-09-03T11:04:44.449Z,24.30
2022-09-03T11:07:14.854Z,24.40
2022-09-03T11:09:48.537Z,24.60
2022-09-03T11:12:37.095Z,24.80
2022-09-03T11:15:21.937Z,25.10
2022-09-03T11:17:56.888Z,25.30
2022-09-03T11:20:25.861Z,25.20
2022-09-03T11:22:57.156Z,25.10
2022-09-03T11:25:36.890Z,25.10
2022-09-03T11:28:28.525Z,25.30
2022-09-03T11:31:13.585Z,25.70
2022-09-03T11:33:47.037Z,25.60
2022-09-03T11:36:29.245Z,25.60
2022-09-03T11:38:56.171Z,25.70
2022-09-03T11:41:27.192Z,25.70
2022-09-03T11:43:54.624Z,25.40
2022-09-03T11:46:21.956Z,25.40
2022-09-03T11:48:55.451Z,25.20
2022-09-03T11:51:25.402Z,25.30
2022-09-03T11:54:13.923Z,25.30
2022-09-03T11:56:42.917Z,25.50
2022-09-03T11:59:20.639Z,25.40
2022-09-03T12:01:53.141Z,25.30
2022-09-03T12:04:25.450Z,25.10
2022-09-03T12:07:21.697Z,24.90
2022-09-03T12:10:09.670Z,24.90
2022-09-03T12:12:54.872Z,25.00
2022-09-03T12:15:52.136Z,25.20
2022-09-03T12:18:29.574Z,25.40
2022-09-03T12:20:56.293Z,25.40
2022-09-03T12:23:29.263Z,25.40
2022-09-03T12:25:57.439Z,25.60
2022-09-03T12:28:26.463Z,25.80
2022-09-03T12:30:53.960Z,25.90
2022-09-03T12:33:22.853Z,26.00
2022-09-03T12:36:00.848Z,25.90
2022-09-03T12:38:30.089Z,26.00
2022-09-03T12:43:52.057Z,26.30
2022-09-03T12:46:23.154Z,26.50
2022-09-03T12:52:01.848Z,26.50
2022-09-03T12:54:31.991Z,26.40
2022-09-03T12:57:00.442Z,26.40
2022-09-03T12:59:31.356Z,26.30
2022-09-03T13:02:02.580Z,26.20
2022-09-03T13:04:35.590Z,26.20
2022-09-03T13:07:35.086Z,26.00
2022-09-03T13:10:13.567Z,25.90
2022-09-03T13:12:52.464Z,25.80
2022-09-03T13:15:25.752Z,25.70
2022-09-03T13:18:04.424Z,25.80
2022-09-03T13:20:34.270Z,26.00
2022-09-03T13:23:28.336Z,25.90
2022-09-03T13:26:40.348Z,25.80
2022-09-03T13:29:57.872Z,25.90
2022-09-03T13:33:01.917Z,26.10
2022-09-03T13:35:44.936Z,26.20
2022-09-03T13:38:37.125Z,26.00
2022-09-03T13:41:21.097Z,25.80
2022-09-03T13:44:07.888Z,25.60
2022-09-03T13:46:55.288Z,25.60
2022-09-03T13:49:59.572Z,25.50
2022-09-03T13:52:42.856Z,25.70
2022-09-03T13:55:19.501Z,26.00
2022-09-03T13:57:52.004Z,26.40
2022-09-03T14:01:01.273Z,26.90
2022-09-03T14:03:37.159Z,27.00
2022-09-03T14:06:03.806Z,26.80
2022-09-03T14:08:55.473Z,26.60
2022-09-03T14:11:49.704Z,26.50
2022-09-03T14:14:47.484Z,26.20
2022-09-03T14:17:26.420Z,26.00
2022-09-03T14:20:02.329Z,25.90
2022-09-03T14:22:48.329Z,25.70
2022-09-03T14:25:21.228Z,25.50
2022-09-03T14:27:48.548Z,25.40
2022-09-03T14:30:44.398Z,25.50
2022-09-03T14:33:39.188Z,25.60
2022-09-03T14:36:26.328Z,25.60
2022-09-03T14:39:19.593Z,25.40
2022-09-03T14:41:56.433Z,25.20
2022-09-03T14:44:32.074Z,25.30
2022-09-03T14:47:17.818Z,25.40
2022-09-03T14:50:08.696Z,25.60
2022-09-03T14:52:50.692Z,25.70
2022-09-03T14:55:33.288Z,25.80
2022-09-03T14:58:18.196Z,25.90
2022-09-03T15:01:06.381Z,26.00
2022-09-03T15:03:51.280Z,26.00
2022-09-03T15:06:30.928Z,26.00
2022-09-03T15:09:16.353Z,25.70
2022-09-03T15:11:52.205Z,25.60
2022-09-03T15:14:21.336Z,25.40
2022-09-03T15:17:01.222Z,25.30
2022-09-03T15:20:12.546Z,25.30
2022-09-03T15:23:03.855Z,25.10
2022-09-03T15:26:10.835Z,25.00
2022-09-03T15:28:46.494Z,24.90
2022-09-03T15:31:47.696Z,24.80
2022-09-03T15:34:20.665Z,24.80
2022-09-03T15:36:53.809Z,24.60
2022-09-03T15:39:23.367Z,24.60
2022-09-03T15:42:04.344Z,24.60
2022-09-03T15:44:48.257Z,24.60
2022-09-03T15:47:40.061Z,24.60
2022-09-03T15:50:37.743Z,24.60
2022-09-03T15:53:14.071Z,24.60
2022-09-03T15:55:45.289Z,24.70
2022-09-03T15:58:18.816Z,24.70
2022-09-03T16:01:15.293Z,24.80
2022-09-03T16:04:01.213Z,24.70
2022-09-03T16:06:43.446Z,24.60
2022-09-03T16:09:26.136Z,24.50
2022-09-03T16:12:31.108Z,24.40
2022-09-03T16:15:00.636Z,24.20
2022-09-03T16:17:36.025Z,24.10
2022-09-03T16:20:29.068Z,24.00
2022-09-03T16:23:13.283Z,24.00
2022-09-03T16:25:55.110Z,23.90
2022-09-03T16:28:43.539Z,23.90
2022-09-03T16:31:16.585Z,23.90
2022-09-03T16:34:18.657Z,24.00
2022-09-03T16:37:04.898Z,24.00
2022-09-03T16:39:52.595Z,24.00
2022-09-03T16:42:29.262Z,24.00
2022-09-03T16:45:14.620Z,24.00
2022-09-03T16:48:20.561Z,24.00
2022-09-03T16:50:52.230Z,23.90
2022-09-03T16:54:08.453Z,23.70
2022-09-03T16:56:51.016Z,23.50
2022-09-03T16:59:41.647Z,23.40
2022-09-03T17:02:36.951Z,23.30
2022-09-03T17:05:16.022Z,23.10
2022-09-03T17:08:01.019Z,22.90
2022-09-03T17:10:33.830Z,22.70
2022-09-03T17:13:25.327Z,22.40
2022-09-03T17:16:11.017Z,22.20
2022-09-03T17:18:57.317Z,22.10
2022-09-03T17:21:46.003Z,21.90
2022-09-03T17:24:33.541Z,21.80
2022-09-03T17:27:20.915Z,21.70
2022-09-03T17:30:11.148Z,21.50
2022-09-03T17:33:02.087Z,21.40
2022-09-03T17:35:54.415Z,21.30
2022-09-03T17:38:29.907Z,21.20
2022-09-03T17:41:22.778Z,21.10
2022-09-03T17:44:11.151Z,21.10
2022-09-03T17:46:52.962Z,21.10
2022-09-03T17:49:31.768Z,21.00
2022-09-03T17:52:19.400Z,21.00
2022-09-03T17:54:52.625Z,20.90
2022-09-03T17:57:21.869Z,20.80
2022-09-03T18:00:06.302Z,20.80
2022-09-03T18:02:39.558Z,20.80
2022-09-03T18:05:34.123Z,20.70
2022-09-03T18:08:21.058Z,20.60
2022-09-03T18:10:50.652Z,20.40
2022-09-03T18:13:57.664Z,20.30
2022-09-03T18:16:29.112Z,20.10
2022-09-03T18:19:32.064Z,20.00
2022-09-03T18:22:23.181Z,19.90
2022-09-03T18:25:17.442Z,19.70
2022-09-03T18:28:12.471Z,19.60
2022-09-03T18:30:57.991Z,19.50
2022-09-03T18:33:44.242Z,19.40
2022-09-03T18:36:31.030Z,19.40
2022-09-03T18:39:30.716Z,19.40
2022-09-03T18:42:21.456Z,19.40
2022-09-03T18:45:37.333Z,19.30
2022-09-03T18:48:40.109Z,19.20
2022-09-03T18:51:25.316Z,19.20
2022-09-03T18:54:50.575Z,19.20
2022-09-03T18:57:45.341Z,19.20
2022-09-03T19:00:33.324Z,19.20
2022-09-03T19:03:18.818Z,19.10
2022-09-03T19:06:06.902Z,19.00
2022-09-03T19:09:02.484Z,19.00
2022-09-03T19:12:17.377Z,19.00
2022-09-03T19:15:24.874Z,19.00
2022-09-03T19:18:22.860Z,19.00
2022-09-03T19:21:18.546Z,19.00
2022-09-03T19:24:04.178Z,19.00
2022-09-03T19:27:10.525Z,19.10
2022-09-03T19:30:24.144Z,19.10
2022-09-03T19:33:54.118Z,19.00
2022-09-03T19:37:04.337Z,19.00
2022-09-03T19:40:23.794Z,19.00
2022-09-03T19:43:17.912Z,19.10
2022-09-03T19:46:21.332Z,19.10
2022-09-03T19:49:25.460Z,19.10
2022-09-03T19:52:27.741Z,19.10
2022-09-03T19:55:15.366Z,19.20
2022-09-03T19:58:03.657Z,19.10
2022-09-03T20:00:51.196Z,19.10
2022-09-03T20:03:36.816Z,19.00
2022-09-03T20:06:25.112Z,18.90
2022-09-03T20:09:10.541Z,18.90
2022-09-03T20:11:39.841Z,18.90
2022-09-03T20:14:14.161Z,18.80
2022-09-03T20:17:05.986Z,18.80
2022-09-03T20:20:01.663Z,18.80
2022-09-03T20:22:41.516Z,18.80
2022-09-03T20:25:08.914Z,18.70
2022-09-03T20:27:51.725Z,18.70
2022-09-03T20:30:30.739Z,18.70
2022-09-03T20:33:22.790Z,18.70
2022-09-03T20:36:04.984Z,18.70
2022-09-03T20:38:34.588Z,18.70
2022-09-03T20:41:29.597Z,18.70
2022-09-03T20:44:05.307Z,18.60
2022-09-03T20:46:47.402Z,18.60
2022-09-03T20:49:22.982Z,18.60
2022-09-03T20:51:51.686Z,18.60
2022-09-03T20:54:32.016Z,18.60
2022-09-03T20:57:31.101Z,18.50
2022-09-03T21:00:00.863Z,18.60
2022-09-03T21:02:36.783Z,18.60
2022-09-03T21:05:06.196Z,18.50
2022-09-03T21:08:08.840Z,18.50
2022-09-03T21:10:52.625Z,18.50
2022-09-03T21:13:38.607Z,18.40
2022-09-03T21:16:23.589Z,18.40
2022-09-03T21:18:53.140Z,18.40
2022-09-03T21:21:48.169Z,18.40
2022-09-03T21:24:19.905Z,18.40
2022-09-03T21:26:59.045Z,18.40
2022-09-03T21:29:37.969Z,18.40
2022-09-03T21:32:18.844Z,18.40
2022-09-03T21:35:25.723Z,18.40
2022-09-03T21:38:03.569Z,18.40
2022-09-03T21:40:33.438Z,18.40
2022-09-03T21:43:19.407Z,18.40
2022-09-03T21:45:46.231Z,18.40
2022-09-03T21:48:18.363Z,18.40
2022-09-03T21:50:48.663Z,18.30
2022-09-03T21:53:35.662Z,18.40
2022-09-03T21:56:15.778Z,18.30
2022-09-03T21:59:11.258Z,18.30
2022-09-03T22:01:58.134Z,18.40
2022-09-03T22:04:28.020Z,18.30
2022-09-03T22:07:00.380Z,18.20
2022-09-03T22:09:34.241Z,18.20
2022-09-03T22:12:39.987Z,18.20
2022-09-03T22:15:11.405Z,18.10
2022-09-03T22:17:58.872Z,18.00
2022-09-03T22:20:27.794Z,18.00
2022-09-03T22:22:58.858Z,17.90
2022-09-03T22:25:40.768Z,17.90
2022-09-03T22:28:31.111Z,17.90
2022-09-03T22:31:04.005Z,17.80
2022-09-03T22:33:43.649Z,17.70
2022-09-03T22:36:21.564Z,17.70
2022-09-03T22:39:11.714Z,17.70
2022-09-03T22:42:03.256Z,17.70
2022-09-03T22:44:59.157Z,17.60
2022-09-03T22:47:37.933Z,17.60
2022-09-03T22:50:16.094Z,17.60
2022-09-03T22:52:58.148Z,17.60
2022-09-03T22:55:27.669Z,17.60
2022-09-03T22:57:57.282Z,17.50
2022-09-03T23:00:24.220Z,17.50
2022-09-03T23:03:07.600Z,17.50
2022-09-03T23:05:41.375Z,17.50
2022-09-03T23:08:39.421Z,17.50
2022-09-03T23:11:23.112Z,17.50
2022-09-03T23:13:56.900Z,17.50
2022-09-03T23:16:40.913Z,17.60
2022-09-03T23:19:40.554Z,17.60
2022-09-03T23:22:36.451Z,17.60
2022-09-03T23:25:09.185Z,17.60
2022-09-03T23:28:33.282Z,17.60
2022-09-03T23:31:19.904Z,17.60
2022-09-03T23:33:50.055Z,17.60
2022-09-03T23:36:36.810Z,17.50
2022-09-03T23:39:33.752Z,17.50
2022-09-03T23:42:26.663Z,17.40
2022-09-03T23:45:10.240Z,17.40
2022-09-03T23:47:48.711Z,17.30
2022-09-03T23:50:46.375Z,17.30
2022-09-03T23:53:44.553Z,17.30
2022-09-03T23:56:27.926Z,17.30
2022-09-03T23:59:00.486Z,17.30
